Etusivu
METAR-TAF:

METAR-TAF

Lentoasemat :

Palma, Espanja

Palma de Mallorcan lentoasema

Leveyspiiri: 39-33N, Pituuspiiri: 002-44E, korkeus merenpinnasta: 4 m

Tämänhetkinen sää

Tämä raportti tehtiin 24 minuuttia sitten, kello 21.00 UTC
Tuuli 1 kn idästä/kaakosta
Lämpötila 25°C
Kosteus 83%
Ilmanpaine 1018 hPa
Näkyvyys 10 km tai enemmän
ei pilviä alle 1500 m:ssä eikä cumulonimbus-pilviä

METAR: LEPA 172100Z 11001KT CAVOK 25/22 Q1018 NOSIG

Aika: 23:24 (21:24 UTC)

Sääennuste

Tämä raportti tehtiin 4 tuntia ja 24 minuuttia sitten, kello 17.00 UTC
Ennuste voimassa 17. päivästä klo 18 UTC - 18. päivään klo 18 UTC
Tuuli 10 kn lounaasta
Näkyvyys 10 km tai enemmän
Muutamia pilviä 3000 ft:n korkeudessa
Tulossa
17. päivästä klo 18 UTC - 17. päivään klo 20 UTC
Tuuli 3 kn eri suunnista
Tulossa
18. päivästä klo 09 UTC - 18. päivään klo 12 UTC
Tuuli 10 kn lounaasta

TAF: LEPA 171700Z 1718/1818 22010KT 9999 FEW030 TX34/1812Z TN22/1805Z BECMG 1718/1720 VRB03KT BECMG 1809/1812 22010KT

Säähavainnot ja -ennusteet yli 4000 lentoasemalta (METAR- ja TAF-raportit).

Käytössä olevat sääasemat on merkitty karttaan keltaisilla ja punaisilla pisteillä.

Aseta hiiri pisteen päälle nähdäksesi sääaseman nimen.

Klikkaa sitten nähdäksesi säähavainnot ja -ennusteet.

Kartan vaihtaminen: klikkaa mustalla rastilla varustettuja vihreitä pisteitä, niin voit zoomata sisään; viivalla varustettua vihreää pistettä, niin voit zoomata ulos tai vihreitä nuolia, niin pääset viereisille kartoille.


METAR-TAF: